createdAt,value
2018-11-11T00:00:26.370Z,30.00
2018-11-11T00:02:55.749Z,27.10
2018-11-11T00:05:24.938Z,28.47
2018-11-11T00:07:54.624Z,27.37
2018-11-11T00:10:23.794Z,29.27
2018-11-11T00:12:52.978Z,29.03
2018-11-11T00:15:22.207Z,28.87
2018-11-11T00:17:51.445Z,34.27
2018-11-11T00:20:20.622Z,46.90
2018-11-11T00:22:57.971Z,29.60
2018-11-11T00:25:27.182Z,28.60
2018-11-11T00:27:56.393Z,45.00
2018-11-11T00:30:25.569Z,54.30
2018-11-11T00:32:54.759Z,50.17
2018-11-11T00:35:24.026Z,53.30
2018-11-11T00:37:53.217Z,51.60
2018-11-11T00:40:22.409Z,62.13
2018-11-11T00:42:51.593Z,57.70
2018-11-11T00:45:20.805Z,56.97
2018-11-11T00:47:58.239Z,37.83
2018-11-11T00:50:27.424Z,50.13
2018-11-11T00:52:59.947Z,49.30
2018-11-11T00:55:36.097Z,44.10
2018-11-11T00:58:05.261Z,31.77
2018-11-11T01:00:34.425Z,29.90
2018-11-11T01:03:03.638Z,39.43
2018-11-11T01:05:32.814Z,32.47
2018-11-11T01:08:02.066Z,32.07
2018-11-11T01:10:31.267Z,37.87
2018-11-11T01:13:00.443Z,32.53
2018-11-11T01:15:55.762Z,33.90
2018-11-11T01:18:24.950Z,32.37
2018-11-11T01:20:54.113Z,31.90
2018-11-11T01:23:23.343Z,45.63
2018-11-11T01:25:52.500Z,37.47
2018-11-11T01:28:21.701Z,33.43
2018-11-11T01:30:50.914Z,33.20
2018-11-11T01:33:20.092Z,35.17
2018-11-11T01:35:49.259Z,35.20
2018-11-11T01:38:18.457Z,32.07
2018-11-11T01:40:47.677Z,43.90
2018-11-11T01:44:05.370Z,37.07
2018-11-11T01:46:34.789Z,43.73
2018-11-11T01:49:03.962Z,42.87
2018-11-11T01:51:33.192Z,38.07
2018-11-11T01:54:02.384Z,40.87
2018-11-11T01:56:31.564Z,51.97
2018-11-11T01:59:00.773Z,62.17
2018-11-11T02:01:29.970Z,54.20
2018-11-11T02:03:59.242Z,50.50
2018-11-11T02:06:28.438Z,61.13
2018-11-11T02:08:57.754Z,62.70
2018-11-11T02:11:26.990Z,51.57
2018-11-11T02:13:56.850Z,38.50
2018-11-11T02:16:26.030Z,30.70
2018-11-11T02:18:55.243Z,32.17
2018-11-11T02:21:24.462Z,31.97
2018-11-11T02:23:53.611Z,33.00
2018-11-11T02:29:22.749Z,33.60
2018-11-11T02:31:51.925Z,31.90
2018-11-11T02:34:21.100Z,30.77
2018-11-11T02:36:50.268Z,32.00
2018-11-11T02:39:19.443Z,42.03
2018-11-11T02:41:48.649Z,32.90
2018-11-11T02:44:17.813Z,34.73
2018-11-11T02:46:47.039Z,33.07
2018-11-11T02:49:16.222Z,45.37
2018-11-11T02:51:45.503Z,46.77
2018-11-11T02:54:14.657Z,43.90
2018-11-11T02:56:43.865Z,45.70
2018-11-11T02:59:13.032Z,41.33
2018-11-11T03:01:58.272Z,43.80
2018-11-11T03:04:27.472Z,44.37
2018-11-11T03:06:56.644Z,36.90
2018-11-11T03:09:26.387Z,41.90
2018-11-11T03:11:55.569Z,32.13
2018-11-11T03:14:24.825Z,36.37
2018-11-11T03:16:54.052Z,31.30
2018-11-11T03:19:23.364Z,43.47
2018-11-11T03:21:58.875Z,35.17
2018-11-11T03:24:28.056Z,31.53
2018-11-11T03:26:57.226Z,34.00
2018-11-11T03:29:26.441Z,32.40
2018-11-11T03:31:57.785Z,48.17
2018-11-11T03:34:27.036Z,40.97
2018-11-11T03:36:56.189Z,41.43
2018-11-11T03:39:25.344Z,32.80
2018-11-11T03:41:54.541Z,55.50
2018-11-11T03:44:23.718Z,35.60
2018-11-11T03:46:52.903Z,41.03
2018-11-11T03:49:22.297Z,50.80
2018-11-11T03:51:51.477Z,31.30
2018-11-11T03:54:20.632Z,32.37
2018-11-11T03:56:49.816Z,37.10
2018-11-11T03:59:19.007Z,54.97
2018-11-11T04:01:48.174Z,58.97
2018-11-11T04:04:17.395Z,31.13
2018-11-11T04:06:46.606Z,31.60
2018-11-11T04:09:15.801Z,30.37
2018-11-11T04:11:45.043Z,34.77
2018-11-11T04:14:14.229Z,31.27
2018-11-11T04:16:43.400Z,30.47
2018-11-11T04:19:12.613Z,40.53
2018-11-11T04:21:41.783Z,38.83
2018-11-11T04:24:10.945Z,30.50
2018-11-11T04:26:40.129Z,37.63
2018-11-11T04:29:09.288Z,32.80
2018-11-11T04:31:57.025Z,30.13
2018-11-11T04:34:26.188Z,31.57
2018-11-11T04:36:55.371Z,31.20
2018-11-11T04:39:24.579Z,32.37
2018-11-11T04:41:53.777Z,37.20
2018-11-11T04:44:22.953Z,30.57
2018-11-11T04:46:52.176Z,32.00
2018-11-11T04:49:21.438Z,29.63
2018-11-11T04:51:50.584Z,30.40
2018-11-11T04:54:19.838Z,40.60
2018-11-11T04:56:48.984Z,40.20
2018-11-11T05:02:08.973Z,41.90
2018-11-11T05:04:38.203Z,28.90
2018-11-11T05:07:08.386Z,35.80
2018-11-11T05:09:37.590Z,36.10
2018-11-11T05:12:06.858Z,31.17
2018-11-11T05:14:36.090Z,32.37
2018-11-11T05:17:05.420Z,30.50
2018-11-11T05:19:34.631Z,27.50
2018-11-11T05:22:03.850Z,32.47
2018-11-11T05:24:33.017Z,27.80
2018-11-11T05:27:02.193Z,40.07
2018-11-11T05:29:31.400Z,36.97
2018-11-11T05:32:00.594Z,36.10
2018-11-11T05:34:29.765Z,33.90
2018-11-11T05:36:58.992Z,28.87
2018-11-11T05:39:28.177Z,38.87
2018-11-11T05:41:59.070Z,31.47
2018-11-11T05:44:28.302Z,28.20
2018-11-11T05:46:57.448Z,27.47
2018-11-11T05:49:26.727Z,30.00
2018-11-11T05:51:55.905Z,34.20
2018-11-11T05:54:25.058Z,29.70
2018-11-11T05:56:54.252Z,27.90
2018-11-11T05:59:24.066Z,28.40
2018-11-11T06:01:53.221Z,40.60
2018-11-11T06:04:22.373Z,47.27
2018-11-11T06:06:51.654Z,32.87
2018-11-11T06:09:20.852Z,41.43
2018-11-11T06:11:50.074Z,30.50
2018-11-11T06:14:19.302Z,32.50
2018-11-11T06:16:48.461Z,26.27
2018-11-11T06:19:17.621Z,26.87
2018-11-11T06:21:46.865Z,33.37
2018-11-11T06:24:16.031Z,43.17
2018-11-11T06:26:45.210Z,29.23
2018-11-11T06:29:14.422Z,31.57
2018-11-11T06:31:43.683Z,26.70
2018-11-11T06:34:12.996Z,24.77
2018-11-11T06:36:42.149Z,24.40
2018-11-11T06:39:12.468Z,25.17
2018-11-11T06:41:42.013Z,25.80
2018-11-11T06:44:11.188Z,22.20
2018-11-11T06:46:40.370Z,24.60
2018-11-11T06:49:09.630Z,24.30
2018-11-11T06:51:38.789Z,25.17
2018-11-11T06:54:07.958Z,22.27
2018-11-11T06:56:37.166Z,29.23
2018-11-11T06:59:06.353Z,27.67
2018-11-11T07:01:35.662Z,25.07
2018-11-11T07:04:05.175Z,31.97
2018-11-11T07:06:57.402Z,32.10
2018-11-11T07:09:26.585Z,20.57
2018-11-11T07:11:55.765Z,26.77
2018-11-11T07:14:25.201Z,22.37
2018-11-11T07:16:54.408Z,21.67
2018-11-11T07:19:23.571Z,29.43
2018-11-11T07:21:52.748Z,31.67
2018-11-11T07:24:21.953Z,21.17
2018-11-11T07:26:51.118Z,21.43
2018-11-11T07:29:20.275Z,20.27
2018-11-11T07:31:49.481Z,31.97
2018-11-11T07:34:18.629Z,21.60
2018-11-11T07:36:47.810Z,19.50
2018-11-11T07:39:17.219Z,23.60
2018-11-11T07:41:46.440Z,22.20
2018-11-11T07:44:15.668Z,26.90
2018-11-11T07:46:44.878Z,30.37
2018-11-11T07:49:14.161Z,27.43
2018-11-11T07:51:43.344Z,31.63
2018-11-11T07:54:12.569Z,31.33
2018-11-11T07:56:41.750Z,28.87
2018-11-11T07:59:10.910Z,48.70
2018-11-11T08:01:40.907Z,40.97
2018-11-11T08:04:10.113Z,39.60
2018-11-11T08:06:39.310Z,42.90
2018-11-11T08:09:08.544Z,47.17
2018-11-11T08:11:59.934Z,50.77
2018-11-11T08:14:29.533Z,52.20
2018-11-11T08:16:59.413Z,48.07
2018-11-11T08:19:28.691Z,35.93
2018-11-11T08:21:57.917Z,56.07
2018-11-11T08:24:27.081Z,49.37
2018-11-11T08:26:56.257Z,58.77
2018-11-11T08:29:25.725Z,35.07
2018-11-11T08:32:00.614Z,52.27
2018-11-11T08:34:29.823Z,21.33
2018-11-11T08:36:59.006Z,20.13
2018-11-11T08:39:28.164Z,26.07
2018-11-11T08:41:57.373Z,21.90
2018-11-11T08:44:26.621Z,33.90
2018-11-11T08:46:55.773Z,26.00
2018-11-11T08:49:24.989Z,20.93
2018-11-11T08:51:54.160Z,26.70
2018-11-11T08:54:23.312Z,22.97
2018-11-11T08:56:52.498Z,28.50
2018-11-11T08:59:21.666Z,36.73
2018-11-11T09:01:50.852Z,28.87
2018-11-11T09:04:20.067Z,27.10
2018-11-11T09:06:49.289Z,27.40
2018-11-11T09:09:18.484Z,20.13
2018-11-11T09:11:47.684Z,24.40
2018-11-11T09:14:16.882Z,22.37
2018-11-11T09:16:46.199Z,25.70
2018-11-11T09:19:15.526Z,20.23
2018-11-11T09:21:44.730Z,37.67
2018-11-11T09:24:13.927Z,31.77
2018-11-11T09:26:59.460Z,31.10
2018-11-11T09:29:28.702Z,35.47
2018-11-11T09:31:59.737Z,27.50
2018-11-11T09:34:28.904Z,31.40
2018-11-11T09:36:58.079Z,34.40
2018-11-11T09:39:27.449Z,37.10
2018-11-11T09:41:57.375Z,20.47
2018-11-11T09:44:26.581Z,28.30
2018-11-11T09:46:59.422Z,19.87
2018-11-11T09:49:57.949Z,27.87
2018-11-11T09:52:56.998Z,22.80
2018-11-11T10:01:56.633Z,23.10
2018-11-11T10:04:51.840Z,27.63
2018-11-11T10:14:04.821Z,27.47
2018-11-11T10:38:57.128Z,24.13
2018-11-11T10:56:32.192Z,22.40
2018-11-11T11:14:51.702Z,20.53
2018-11-11T11:29:11.149Z,26.53
2018-11-11T11:32:00.067Z,26.80
2018-11-11T11:34:52.548Z,22.27
2018-11-11T11:52:14.698Z,23.73
2018-11-11T11:54:53.772Z,24.53
2018-11-11T11:57:22.992Z,18.10
2018-11-11T11:59:52.176Z,23.90
2018-11-11T12:02:21.609Z,26.53
2018-11-11T12:04:50.767Z,25.63
2018-11-11T12:07:20.054Z,24.23
2018-11-11T12:09:58.922Z,21.03
2018-11-11T12:12:28.114Z,22.60
2018-11-11T12:14:57.345Z,22.07
2018-11-11T12:17:26.549Z,23.53
2018-11-11T12:19:59.681Z,19.57
2018-11-11T12:22:28.863Z,17.03
2018-11-11T12:24:59.329Z,19.00
2018-11-11T12:27:57.873Z,23.67
2018-11-11T12:30:31.650Z,21.23
2018-11-11T12:33:00.755Z,22.77
2018-11-11T12:35:30.324Z,19.00
2018-11-11T12:37:59.767Z,22.77
2018-11-11T12:40:58.216Z,22.40
2018-11-11T12:43:27.393Z,21.20
2018-11-11T12:46:00.600Z,23.30
2018-11-11T12:48:56.854Z,26.50
2018-11-11T12:51:26.125Z,23.53
2018-11-11T12:54:01.505Z,29.23
2018-11-11T12:56:57.290Z,23.83
2018-11-11T13:11:56.800Z,23.83
2018-11-11T13:14:57.349Z,26.33
2018-11-11T13:20:56.505Z,25.20
2018-11-11T13:36:56.616Z,26.10
2018-11-11T14:02:31.850Z,26.83
2018-11-11T14:05:01.686Z,24.60
2018-11-11T14:07:57.232Z,27.60
2018-11-11T14:13:23.542Z,29.63
2018-11-11T14:15:58.972Z,29.27
2018-11-11T14:18:57.196Z,31.50
2018-11-11T14:24:51.881Z,27.57
2018-11-11T14:30:22.450Z,26.00
2018-11-11T14:32:59.435Z,21.70
2018-11-11T14:35:28.629Z,27.13
2018-11-11T14:37:59.150Z,30.63
2018-11-11T14:40:57.501Z,31.10
2018-11-11T14:43:40.790Z,31.57
2018-11-11T14:58:12.168Z,31.17
2018-11-11T15:00:57.981Z,33.90
2018-11-11T15:03:27.249Z,31.00
2018-11-11T15:05:59.954Z,36.60
2018-11-11T15:08:29.203Z,31.70
2018-11-11T15:11:00.102Z,27.80
2018-11-11T15:13:29.287Z,23.50
2018-11-11T15:15:59.748Z,22.10
2018-11-11T15:18:28.988Z,29.27
2018-11-11T15:20:59.666Z,30.27
2018-11-11T15:23:58.136Z,26.10
2018-11-11T15:26:27.380Z,21.50
2018-11-11T15:29:00.915Z,21.50
2018-11-11T15:31:30.106Z,22.77
2018-11-11T15:33:59.406Z,19.50
2018-11-11T15:36:28.590Z,42.97
2018-11-11T15:38:59.564Z,25.57
2018-11-11T15:41:58.067Z,21.40
2018-11-11T15:44:51.937Z,17.20
2018-11-11T15:47:21.110Z,33.83
2018-11-11T15:50:00.575Z,19.30
2018-11-11T15:52:57.132Z,49.23
2018-11-11T15:58:56.983Z,44.33
2018-11-11T16:04:52.626Z,35.80
2018-11-11T16:13:40.357Z,43.00
2018-11-11T16:16:09.610Z,49.03
2018-11-11T16:18:57.461Z,44.60
2018-11-11T16:21:56.481Z,30.10
2018-11-11T16:24:52.277Z,30.27
2018-11-11T16:48:54.383Z,40.50
2018-11-11T16:54:51.890Z,41.47
2018-11-11T17:03:24.478Z,33.80
2018-11-11T17:05:53.858Z,33.73
2018-11-11T17:08:34.359Z,31.80
2018-11-11T17:16:03.757Z,30.97
2018-11-11T17:21:59.203Z,24.47
2018-11-11T17:24:53.534Z,26.67
2018-11-11T17:27:30.443Z,42.00
2018-11-11T17:29:59.813Z,23.03
2018-11-11T17:32:48.789Z,36.73
2018-11-11T17:38:18.447Z,40.03
2018-11-11T17:40:49.854Z,24.70
2018-11-11T17:46:19.013Z,22.80
2018-11-11T17:49:00.670Z,23.80
2018-11-11T17:51:39.910Z,20.80
2018-11-11T18:06:10.527Z,34.20
2018-11-11T18:08:58.810Z,36.43
2018-11-11T18:11:50.792Z,32.73
2018-11-11T18:14:20.118Z,44.13
2018-11-11T18:16:53.254Z,42.57
2018-11-11T18:22:22.893Z,37.53
2018-11-11T18:24:52.219Z,31.37
2018-11-11T18:45:57.225Z,38.13
2018-11-11T18:48:36.134Z,45.97
2018-11-11T18:51:05.461Z,60.73
2018-11-11T18:53:57.769Z,59.33
2018-11-11T18:59:11.525Z,24.43
2018-11-11T19:01:40.761Z,39.40
2018-11-11T19:07:11.314Z,26.63
2018-11-11T19:09:59.893Z,27.37
2018-11-11T19:12:57.957Z,29.87
2018-11-11T19:15:27.390Z,26.37
2018-11-11T19:17:56.608Z,40.10
2018-11-11T19:20:26.498Z,34.03
2018-11-11T19:22:55.720Z,35.03
2018-11-11T19:25:26.633Z,27.63
2018-11-11T19:27:56.521Z,31.90
2018-11-11T19:30:26.869Z,30.57
2018-11-11T19:32:56.062Z,39.50
2018-11-11T19:35:26.272Z,38.03
2018-11-11T19:38:01.318Z,27.60
2018-11-11T19:40:57.180Z,27.93
2018-11-11T19:43:26.572Z,26.47
2018-11-11T19:45:55.855Z,26.70
2018-11-11T19:48:25.899Z,26.90
2018-11-11T19:51:01.265Z,36.13
2018-11-11T19:53:31.669Z,31.67
2018-11-11T19:56:00.831Z,41.00
2018-11-11T19:58:30.757Z,43.17
2018-11-11T20:04:02.899Z,33.07
2018-11-11T20:06:32.166Z,37.73
2018-11-11T20:09:01.902Z,31.63
2018-11-11T20:11:56.627Z,34.27
2018-11-11T20:14:25.957Z,28.30
2018-11-11T20:16:55.300Z,25.30
2018-11-11T20:19:24.506Z,27.70
2018-11-11T20:21:53.835Z,26.90
2018-11-11T20:24:23.094Z,32.73
2018-11-11T20:26:52.326Z,41.90
2018-11-11T20:29:21.627Z,26.87
2018-11-11T20:31:50.840Z,25.97
2018-11-11T20:34:20.111Z,26.40
2018-11-11T20:36:49.352Z,32.87
2018-11-11T20:39:18.582Z,40.83
2018-11-11T20:42:00.547Z,42.70
2018-11-11T20:44:29.807Z,27.40
2018-11-11T20:47:00.030Z,31.63
2018-11-11T20:49:29.312Z,30.50
2018-11-11T20:51:59.840Z,37.53
2018-11-11T20:54:29.197Z,26.50
2018-11-11T20:56:59.457Z,39.23
2018-11-11T20:59:58.155Z,50.57
2018-11-11T21:02:27.495Z,41.17
2018-11-11T21:04:56.697Z,24.87
2018-11-11T21:07:25.943Z,26.80
2018-11-11T21:09:55.307Z,23.40
2018-11-11T21:12:25.512Z,26.87
2018-11-11T21:14:54.694Z,28.73
2018-11-11T21:17:24.031Z,26.90
2018-11-11T21:19:59.800Z,25.10
2018-11-11T21:22:29.038Z,30.50
2018-11-11T21:24:58.790Z,34.43
2018-11-11T21:27:27.986Z,49.03
2018-11-11T21:29:57.224Z,31.70
2018-11-11T21:32:26.731Z,39.30
2018-11-11T21:34:55.959Z,28.23
2018-11-11T21:40:26.184Z,65.30
2018-11-11T21:42:55.966Z,64.07
2018-11-11T21:45:26.072Z,29.90
2018-11-11T21:48:01.378Z,31.80
2018-11-11T21:50:31.097Z,73.00
2018-11-11T21:53:25.182Z,74.43
2018-11-11T21:55:54.419Z,67.57
2018-11-11T21:58:23.661Z,32.60
2018-11-11T22:00:53.074Z,36.80
2018-11-11T22:03:22.515Z,52.23
2018-11-11T22:05:52.002Z,54.13
2018-11-11T22:11:22.128Z,34.00
2018-11-11T22:13:51.365Z,34.50
2018-11-11T22:16:20.887Z,31.40
2018-11-11T22:18:50.095Z,46.90
2018-11-11T22:21:19.286Z,35.50
2018-11-11T22:23:48.473Z,50.07
2018-11-11T22:26:17.698Z,51.10
2018-11-11T22:28:46.875Z,34.40
2018-11-11T22:31:16.066Z,32.70
2018-11-11T22:33:45.405Z,34.33
2018-11-11T22:36:14.585Z,36.37
2018-11-11T22:38:43.778Z,33.60
2018-11-11T22:41:13.060Z,36.00
2018-11-11T22:43:42.266Z,54.80
2018-11-11T22:46:11.453Z,36.13
2018-11-11T22:48:41.089Z,36.23
2018-11-11T22:51:10.252Z,33.70
2018-11-11T22:53:39.420Z,56.97
2018-11-11T22:56:08.622Z,60.30
2018-11-11T22:58:37.805Z,36.90
2018-11-11T23:01:12.476Z,48.40
2018-11-11T23:03:41.627Z,55.00
2018-11-11T23:06:10.793Z,50.13
2018-11-11T23:08:39.990Z,49.70
2018-11-11T23:11:09.264Z,55.40
2018-11-11T23:13:38.816Z,35.07
2018-11-11T23:16:08.173Z,35.97
2018-11-11T23:18:37.209Z,44.47
2018-11-11T23:21:06.509Z,58.63
2018-11-11T23:23:35.718Z,35.60
2018-11-11T23:26:04.926Z,40.07
2018-11-11T23:28:34.170Z,37.57
2018-11-11T23:31:03.361Z,36.93
2018-11-11T23:33:32.661Z,36.53
2018-11-11T23:36:01.852Z,41.57
2018-11-11T23:38:31.052Z,39.83
2018-11-11T23:41:00.254Z,62.60
2018-11-11T23:43:29.438Z,51.90
2018-11-11T23:45:58.677Z,46.27
2018-11-11T23:48:27.946Z,36.37
2018-11-11T23:50:57.128Z,38.20
2018-11-11T23:56:26.787Z,36.93
2018-11-11T23:58:56.124Z,36.20
